createdAt,value
2023-03-11T00:01:05.422Z,22.40
2023-03-11T00:03:38.477Z,22.40
2023-03-11T00:06:11.558Z,22.40
2023-03-11T00:08:44.605Z,22.40
2023-03-11T00:11:17.991Z,22.40
2023-03-11T00:13:55.293Z,22.40
2023-03-11T00:16:28.298Z,22.40
2023-03-11T00:19:01.330Z,22.40
2023-03-11T00:21:34.309Z,22.40
2023-03-11T00:24:07.448Z,22.50
2023-03-11T00:26:40.525Z,22.50
2023-03-11T00:29:13.532Z,22.60
2023-03-11T00:31:46.446Z,22.60
2023-03-11T00:34:19.378Z,22.60
2023-03-11T00:36:52.530Z,22.60
2023-03-11T00:39:25.578Z,22.60
2023-03-11T00:41:58.502Z,22.60
2023-03-11T00:44:31.971Z,22.70
2023-03-11T00:47:04.872Z,22.70
2023-03-11T00:49:38.780Z,22.80
2023-03-11T00:52:11.657Z,22.80
2023-03-11T00:54:44.897Z,22.80
2023-03-11T00:57:17.958Z,22.90
2023-03-11T00:59:51.026Z,22.90
2023-03-11T01:02:23.916Z,22.90
2023-03-11T01:05:00.232Z,22.90
2023-03-11T01:07:33.124Z,23.00
2023-03-11T01:10:06.180Z,23.10
2023-03-11T01:12:39.222Z,23.10
2023-03-11T01:15:13.152Z,23.10
2023-03-11T01:17:46.072Z,23.10
2023-03-11T01:20:19.078Z,23.10
2023-03-11T01:22:52.009Z,23.10
2023-03-11T01:25:26.009Z,23.00
2023-03-11T01:27:59.019Z,23.00
2023-03-11T01:30:32.741Z,23.00
2023-03-11T01:33:05.624Z,23.10
2023-03-11T01:35:38.609Z,23.10
2023-03-11T01:38:11.441Z,23.20
2023-03-11T01:40:46.235Z,23.20
2023-03-11T01:43:41.567Z,23.20
2023-03-11T01:46:31.620Z,23.20
2023-03-11T01:49:05.956Z,23.20
2023-03-11T01:51:43.849Z,23.30
2023-03-11T01:54:18.559Z,23.30
2023-03-11T01:56:52.304Z,23.30
2023-03-11T01:59:27.342Z,23.30
2023-03-11T02:02:08.266Z,23.30
2023-03-11T02:04:42.614Z,23.30
2023-03-11T02:07:16.462Z,23.40
2023-03-11T02:09:49.609Z,23.40
2023-03-11T02:12:23.261Z,23.40
2023-03-11T02:15:00.037Z,23.40
2023-03-11T02:17:36.157Z,23.30
2023-03-11T02:20:19.728Z,23.30
2023-03-11T02:22:53.648Z,23.30
2023-03-11T02:25:45.672Z,23.30
2023-03-11T02:28:21.276Z,23.20
2023-03-11T02:30:56.070Z,23.20
2023-03-11T02:33:31.334Z,23.20
2023-03-11T02:36:04.326Z,23.20
2023-03-11T02:38:37.438Z,23.20
2023-03-11T02:41:11.447Z,23.20
2023-03-11T02:43:46.246Z,23.20
2023-03-11T02:46:19.852Z,23.20
2023-03-11T02:48:53.831Z,23.10
2023-03-11T02:51:31.310Z,23.00
2023-03-11T02:54:05.988Z,23.00
2023-03-11T02:56:38.948Z,23.00
2023-03-11T02:59:11.878Z,23.00
2023-03-11T03:01:44.905Z,23.00
2023-03-11T03:04:17.777Z,22.90
2023-03-11T03:06:50.989Z,22.90
2023-03-11T03:09:24.054Z,23.00
2023-03-11T03:11:57.074Z,22.90
2023-03-11T03:14:30.008Z,22.90
2023-03-11T03:17:05.525Z,22.80
2023-03-11T03:19:38.798Z,22.80
2023-03-11T03:22:11.785Z,22.70
2023-03-11T03:24:44.606Z,22.70
2023-03-11T03:27:18.079Z,22.70
2023-03-11T03:29:51.135Z,22.70
2023-03-11T03:32:24.178Z,22.70
2023-03-11T03:34:58.369Z,22.60
2023-03-11T03:37:32.551Z,22.60
2023-03-11T03:40:07.272Z,22.60
2023-03-11T03:42:41.252Z,22.60
2023-03-11T03:45:14.998Z,22.60
2023-03-11T03:47:48.090Z,22.50
2023-03-11T03:50:21.510Z,22.50
2023-03-11T03:52:54.474Z,22.50
2023-03-11T03:55:27.298Z,22.50
2023-03-11T03:58:00.222Z,22.50
2023-03-11T04:00:33.164Z,22.50
2023-03-11T04:03:06.475Z,22.50
2023-03-11T04:05:39.471Z,22.50
2023-03-11T04:08:17.832Z,22.40
2023-03-11T04:10:52.391Z,22.40
2023-03-11T04:13:25.316Z,22.40
2023-03-11T04:15:58.226Z,22.40
2023-03-11T04:18:31.310Z,22.40
2023-03-11T04:21:04.349Z,22.40
2023-03-11T04:23:37.868Z,22.40
2023-03-11T04:26:11.042Z,22.40
2023-03-11T04:28:44.053Z,22.40
2023-03-11T04:31:17.011Z,22.40
2023-03-11T04:33:50.006Z,22.40
2023-03-11T04:36:23.055Z,22.40
2023-03-11T04:38:56.057Z,22.30
2023-03-11T04:41:29.259Z,22.30
2023-03-11T04:44:03.214Z,22.30
2023-03-11T04:49:38.099Z,22.30
2023-03-11T04:52:11.424Z,22.30
2023-03-11T04:54:44.377Z,22.30
2023-03-11T04:57:17.122Z,22.30
2023-03-11T04:59:49.949Z,22.20
2023-03-11T05:02:22.834Z,22.20
2023-03-11T05:04:55.917Z,22.10
2023-03-11T05:07:29.097Z,22.10
2023-03-11T05:10:02.024Z,22.10
2023-03-11T05:12:34.890Z,22.00
2023-03-11T05:15:08.092Z,22.00
2023-03-11T05:17:41.209Z,21.90
2023-03-11T05:20:15.975Z,21.90
2023-03-11T05:22:49.295Z,21.90
2023-03-11T05:25:22.463Z,21.90
2023-03-11T05:27:55.281Z,21.90
2023-03-11T05:30:29.269Z,21.80
2023-03-11T05:33:02.228Z,21.80
2023-03-11T05:35:35.089Z,21.80
2023-03-11T05:38:12.277Z,21.80
2023-03-11T05:40:45.132Z,21.80
2023-03-11T05:43:18.830Z,21.80
2023-03-11T05:45:51.849Z,21.70
2023-03-11T05:48:24.941Z,21.70
2023-03-11T05:50:58.453Z,21.70
2023-03-11T05:53:31.511Z,21.60
2023-03-11T05:56:04.892Z,21.60
2023-03-11T05:58:38.070Z,21.60
2023-03-11T06:01:14.860Z,21.60
2023-03-11T06:03:48.607Z,21.60
2023-03-11T06:06:21.481Z,21.50
2023-03-11T06:08:55.613Z,21.50
2023-03-11T06:11:28.879Z,21.50
2023-03-11T06:14:02.460Z,21.40
2023-03-11T06:16:35.373Z,21.40
2023-03-11T06:19:08.552Z,21.40
2023-03-11T06:21:41.633Z,21.40
2023-03-11T06:24:14.414Z,21.30
2023-03-11T06:26:47.787Z,21.30
2023-03-11T06:29:20.777Z,21.30
2023-03-11T06:31:53.908Z,21.30
2023-03-11T06:34:26.961Z,21.20
2023-03-11T06:37:00.986Z,21.20
2023-03-11T06:39:34.033Z,21.20
2023-03-11T06:42:07.128Z,21.10
2023-03-11T06:44:40.034Z,21.10
2023-03-11T06:47:13.096Z,21.10
2023-03-11T06:49:46.080Z,21.00
2023-03-11T06:52:20.375Z,21.00
2023-03-11T06:54:53.502Z,21.00
2023-03-11T06:57:26.695Z,21.00
2023-03-11T06:59:59.670Z,20.90
2023-03-11T07:02:32.662Z,20.90
2023-03-11T07:05:06.051Z,20.90
2023-03-11T07:07:39.520Z,20.80
2023-03-11T07:10:15.940Z,20.80
2023-03-11T07:12:51.063Z,20.80
2023-03-11T07:15:26.496Z,20.80
2023-03-11T07:18:02.356Z,20.70
2023-03-11T07:20:34.170Z,20.70
2023-03-11T07:23:07.193Z,20.60
2023-03-11T07:25:40.243Z,20.60
2023-03-11T07:28:13.265Z,20.60
2023-03-11T07:30:47.446Z,20.60
2023-03-11T07:33:25.106Z,20.60
2023-03-11T07:35:59.269Z,20.60
2023-03-11T07:38:35.348Z,20.60
2023-03-11T07:41:12.034Z,20.60
2023-03-11T07:43:45.833Z,20.50
2023-03-11T07:46:24.896Z,20.50
2023-03-11T07:49:01.488Z,20.50
2023-03-11T07:51:37.696Z,20.50
2023-03-11T07:54:10.734Z,20.50
2023-03-11T07:56:44.058Z,20.50
2023-03-11T07:59:21.196Z,20.50
2023-03-11T08:01:53.274Z,20.50
2023-03-11T08:04:26.674Z,20.50
2023-03-11T08:06:59.682Z,20.50
2023-03-11T08:09:32.758Z,20.50
2023-03-11T08:12:06.218Z,20.50
2023-03-11T08:14:39.209Z,20.50
2023-03-11T08:17:12.251Z,20.50
2023-03-11T08:19:45.174Z,20.40
2023-03-11T08:22:19.963Z,20.40
2023-03-11T08:24:56.911Z,20.50
2023-03-11T08:27:31.442Z,20.40
2023-03-11T08:30:04.761Z,20.40
2023-03-11T08:32:38.072Z,20.40
2023-03-11T08:35:11.284Z,20.40
2023-03-11T08:37:44.716Z,20.40
2023-03-11T08:40:17.704Z,20.40
2023-03-11T08:42:50.778Z,20.40
2023-03-11T08:45:23.833Z,20.30
2023-03-11T08:47:56.947Z,20.40
2023-03-11T08:50:29.876Z,20.40
2023-03-11T08:53:05.130Z,20.40
2023-03-11T08:55:38.179Z,20.30
2023-03-11T08:58:11.253Z,20.30
2023-03-11T09:00:46.560Z,20.30
2023-03-11T09:03:19.501Z,20.30
2023-03-11T09:05:52.484Z,20.30
2023-03-11T09:08:25.313Z,20.20
2023-03-11T09:10:58.237Z,20.20
2023-03-11T09:13:31.097Z,20.20
2023-03-11T09:16:04.334Z,20.20
2023-03-11T09:18:37.381Z,20.20
2023-03-11T09:21:10.277Z,20.20
2023-03-11T09:23:44.482Z,20.20
2023-03-11T09:26:17.811Z,20.20
2023-03-11T09:28:51.037Z,20.20
2023-03-11T09:31:24.554Z,20.20
2023-03-11T09:33:58.360Z,20.10
2023-03-11T09:36:31.813Z,20.10
2023-03-11T09:39:05.460Z,20.10
2023-03-11T09:41:59.538Z,20.10
2023-03-11T09:44:49.272Z,20.00
2023-03-11T09:47:45.140Z,20.00
2023-03-11T09:50:28.788Z,20.00
2023-03-11T09:53:25.087Z,19.90
2023-03-11T09:56:00.266Z,19.90
2023-03-11T09:58:47.430Z,19.90
2023-03-11T10:01:22.797Z,19.90
2023-03-11T10:03:58.041Z,19.90
2023-03-11T10:06:34.473Z,19.90
2023-03-11T10:09:41.076Z,19.90
2023-03-11T10:12:16.445Z,19.90
2023-03-11T10:15:21.966Z,19.90
2023-03-11T10:18:14.719Z,19.80
2023-03-11T10:21:04.744Z,19.80
2023-03-11T10:24:05.420Z,19.80
2023-03-11T10:26:40.168Z,19.70
2023-03-11T10:29:20.902Z,19.70
2023-03-11T10:32:04.886Z,19.70
2023-03-11T10:34:55.306Z,19.60
2023-03-11T10:37:46.591Z,19.60
2023-03-11T10:40:30.342Z,19.60
2023-03-11T10:43:20.036Z,19.60
2023-03-11T10:45:54.271Z,19.60
2023-03-11T10:48:30.470Z,19.60
2023-03-11T10:51:11.730Z,19.60
2023-03-11T10:53:53.122Z,19.60
2023-03-11T10:56:43.398Z,19.60
2023-03-11T10:59:30.212Z,19.60
2023-03-11T11:02:04.781Z,19.50
2023-03-11T11:04:43.255Z,19.50
2023-03-11T11:07:35.957Z,19.60
2023-03-11T11:10:20.560Z,19.50
2023-03-11T11:12:58.527Z,19.50
2023-03-11T11:15:36.387Z,19.50
2023-03-11T11:18:10.821Z,19.50
2023-03-11T11:20:46.418Z,19.50
2023-03-11T11:23:21.370Z,19.50
2023-03-11T11:25:56.407Z,19.50
2023-03-11T11:28:30.118Z,19.60
2023-03-11T11:31:05.580Z,19.60
2023-03-11T11:33:46.527Z,19.60
2023-03-11T11:36:21.478Z,19.60
2023-03-11T11:38:55.986Z,19.60
2023-03-11T11:41:30.716Z,19.60
2023-03-11T11:44:11.889Z,19.50
2023-03-11T11:46:46.718Z,19.60
2023-03-11T11:49:27.752Z,19.60
2023-03-11T11:52:08.736Z,19.60
2023-03-11T11:54:58.980Z,19.60
2023-03-11T11:57:32.435Z,19.60
2023-03-11T12:00:08.066Z,19.60
2023-03-11T12:02:49.281Z,19.60
2023-03-11T12:05:24.251Z,19.60
2023-03-11T12:08:07.659Z,19.60
2023-03-11T12:10:45.622Z,19.60
2023-03-11T12:13:48.093Z,19.50
2023-03-11T12:16:29.135Z,19.50
2023-03-11T12:19:16.128Z,19.50
2023-03-11T12:22:10.392Z,19.50
2023-03-11T12:25:00.233Z,19.40
2023-03-11T12:27:41.152Z,19.40
2023-03-11T12:30:22.047Z,19.40
2023-03-11T12:32:56.762Z,19.40
2023-03-11T12:35:38.103Z,19.40
2023-03-11T12:38:18.353Z,19.40
2023-03-11T12:40:53.234Z,19.40
2023-03-11T12:43:37.589Z,19.40
2023-03-11T12:46:11.534Z,19.40
2023-03-11T12:49:10.727Z,19.30
2023-03-11T12:51:45.099Z,19.30
2023-03-11T12:54:41.583Z,19.30
2023-03-11T12:57:20.232Z,19.30
2023-03-11T13:00:24.543Z,19.30
2023-03-11T13:03:05.686Z,19.20
2023-03-11T13:05:55.570Z,19.20
2023-03-11T13:08:33.999Z,19.20
2023-03-11T13:11:08.379Z,19.20
2023-03-11T13:13:50.328Z,19.20
2023-03-11T13:16:28.662Z,19.20
2023-03-11T13:19:03.316Z,19.20
2023-03-11T13:21:38.437Z,19.10
2023-03-11T13:24:29.062Z,19.20
2023-03-11T13:27:09.961Z,19.20
2023-03-11T13:29:51.047Z,19.10
2023-03-11T13:32:34.412Z,19.10
2023-03-11T13:35:12.897Z,19.10
2023-03-11T13:38:15.230Z,19.10
2023-03-11T13:40:49.457Z,19.10
2023-03-11T13:43:29.762Z,19.10
2023-03-11T13:46:04.547Z,19.10
2023-03-11T13:48:48.862Z,19.10
2023-03-11T13:51:39.140Z,19.10
2023-03-11T13:54:26.132Z,19.10
2023-03-11T13:57:01.184Z,19.10
2023-03-11T13:59:36.713Z,19.10
2023-03-11T14:02:14.645Z,19.10
2023-03-11T14:04:55.947Z,19.10
2023-03-11T14:07:33.664Z,19.10
2023-03-11T14:10:17.846Z,19.10
2023-03-11T14:12:51.086Z,19.10
2023-03-11T14:15:28.856Z,19.10
2023-03-11T14:18:03.617Z,19.10
2023-03-11T14:20:36.658Z,19.10
2023-03-11T14:23:12.260Z,19.10
2023-03-11T14:25:45.281Z,19.10
2023-03-11T14:28:24.891Z,19.10
2023-03-11T14:31:02.966Z,19.10
2023-03-11T14:33:36.038Z,19.10
2023-03-11T14:36:10.111Z,19.10
2023-03-11T14:38:44.987Z,19.10
2023-03-11T14:41:18.873Z,19.10
2023-03-11T14:43:55.900Z,19.10
2023-03-11T14:46:30.840Z,19.10
2023-03-11T14:49:05.467Z,19.10
2023-03-11T14:51:39.538Z,19.10
2023-03-11T14:54:14.403Z,19.00
2023-03-11T14:56:49.525Z,19.00
2023-03-11T14:59:28.420Z,19.00
2023-03-11T15:02:03.881Z,19.00
2023-03-11T15:04:39.835Z,19.00
2023-03-11T15:07:12.871Z,19.00
2023-03-11T15:09:46.779Z,19.00
2023-03-11T15:12:39.184Z,19.10
2023-03-11T15:15:30.484Z,19.10
2023-03-11T15:18:06.502Z,19.10
2023-03-11T15:20:40.949Z,19.10
2023-03-11T15:23:16.110Z,19.10
2023-03-11T15:25:51.151Z,19.10
2023-03-11T15:28:34.993Z,19.10
2023-03-11T15:31:28.236Z,19.10
2023-03-11T15:34:02.779Z,19.10
2023-03-11T15:36:37.702Z,19.10
2023-03-11T15:39:19.724Z,19.10
2023-03-11T15:42:11.120Z,19.00
2023-03-11T15:44:45.730Z,19.00
2023-03-11T15:47:20.195Z,19.00
2023-03-11T15:49:53.814Z,19.00
2023-03-11T15:52:26.761Z,19.10
2023-03-11T15:55:00.036Z,19.00
2023-03-11T15:57:34.183Z,19.00
2023-03-11T16:00:07.966Z,19.10
2023-03-11T16:02:40.966Z,19.00
2023-03-11T16:05:32.066Z,19.10
2023-03-11T16:08:04.976Z,19.10
2023-03-11T16:10:38.552Z,19.00
2023-03-11T16:13:12.580Z,19.00
2023-03-11T16:15:45.722Z,18.90
2023-03-11T16:18:18.663Z,18.90
2023-03-11T16:20:56.153Z,18.90
2023-03-11T16:23:34.041Z,18.90
2023-03-11T16:26:05.860Z,18.90
2023-03-11T16:28:38.848Z,18.90
2023-03-11T16:31:12.421Z,18.90
2023-03-11T16:33:45.556Z,18.90
2023-03-11T16:36:18.444Z,18.90
2023-03-11T16:38:53.154Z,18.90
2023-03-11T16:41:26.200Z,18.80
2023-03-11T16:43:59.132Z,18.80
2023-03-11T16:46:32.135Z,18.80
2023-03-11T16:49:05.315Z,18.80
2023-03-11T16:51:38.390Z,18.90
2023-03-11T16:54:11.870Z,18.80
2023-03-11T16:56:44.946Z,18.90
2023-03-11T16:59:18.111Z,18.90
2023-03-11T17:01:52.047Z,18.90
2023-03-11T17:04:25.114Z,18.90
2023-03-11T17:06:58.072Z,18.90
2023-03-11T17:09:31.159Z,18.90
2023-03-11T17:12:03.990Z,18.90
2023-03-11T17:14:36.899Z,18.90
2023-03-11T17:17:09.887Z,18.90
2023-03-11T17:19:46.414Z,18.90
2023-03-11T17:22:19.754Z,18.90
2023-03-11T17:24:52.710Z,18.90
2023-03-11T17:27:25.632Z,18.90
2023-03-11T17:29:59.677Z,18.90
2023-03-11T17:32:33.404Z,18.90
2023-03-11T17:35:06.456Z,18.90
2023-03-11T17:37:39.470Z,18.90
2023-03-11T17:40:13.199Z,18.90
2023-03-11T17:42:46.159Z,18.90
2023-03-11T17:45:19.570Z,18.90
2023-03-11T17:47:52.705Z,18.90
2023-03-11T17:50:25.715Z,18.90
2023-03-11T17:52:58.690Z,18.90
2023-03-11T17:55:31.671Z,18.80
2023-03-11T17:58:04.636Z,18.80
2023-03-11T18:00:37.588Z,18.80
2023-03-11T18:03:11.084Z,18.80
2023-03-11T18:05:45.350Z,18.70
2023-03-11T18:08:18.275Z,18.70
2023-03-11T18:10:54.939Z,18.70
2023-03-11T18:13:27.883Z,18.70
2023-03-11T18:16:08.384Z,18.70
2023-03-11T18:18:41.948Z,18.60
2023-03-11T18:21:16.901Z,18.60
2023-03-11T18:23:50.469Z,18.60
2023-03-11T18:26:23.824Z,18.60
2023-03-11T18:29:04.279Z,18.60
2023-03-11T18:31:37.513Z,18.50
2023-03-11T18:34:12.197Z,18.50
2023-03-11T18:36:45.863Z,18.50
2023-03-11T18:39:18.866Z,18.50
2023-03-11T18:41:51.881Z,18.50
2023-03-11T18:44:24.917Z,18.50
2023-03-11T18:46:57.822Z,18.50
2023-03-11T18:49:31.160Z,18.50
2023-03-11T18:52:04.217Z,18.50
2023-03-11T18:54:37.469Z,18.40
2023-03-11T18:57:10.611Z,18.40
2023-03-11T18:59:43.679Z,18.40
2023-03-11T19:02:17.180Z,18.40
2023-03-11T19:04:50.743Z,18.50
2023-03-11T19:07:25.110Z,18.50
2023-03-11T19:09:58.127Z,18.50
2023-03-11T19:12:32.410Z,18.50
2023-03-11T19:15:05.318Z,18.60
2023-03-11T19:17:38.374Z,18.60
2023-03-11T19:20:12.261Z,18.60
2023-03-11T19:22:45.130Z,18.70
2023-03-11T19:25:17.984Z,18.70
2023-03-11T19:27:51.054Z,18.80
2023-03-11T19:30:24.389Z,18.80
2023-03-11T19:32:59.687Z,18.80
2023-03-11T19:35:32.596Z,18.90
2023-03-11T19:38:05.840Z,18.90
2023-03-11T19:40:39.032Z,19.00
2023-03-11T19:43:12.637Z,19.00
2023-03-11T19:45:45.429Z,19.00
2023-03-11T19:48:18.534Z,19.10
2023-03-11T19:50:52.881Z,19.10
2023-03-11T19:53:26.418Z,19.20
2023-03-11T19:56:00.470Z,19.30
2023-03-11T19:58:34.540Z,19.30
2023-03-11T20:01:07.288Z,19.40
2023-03-11T20:03:40.744Z,19.50
2023-03-11T20:06:15.472Z,19.50
2023-03-11T20:08:48.894Z,19.60
2023-03-11T20:11:22.915Z,19.70
2023-03-11T20:13:55.898Z,19.70
2023-03-11T20:16:28.949Z,19.80
2023-03-11T20:19:02.146Z,19.80
2023-03-11T20:21:35.147Z,19.90
2023-03-11T20:24:08.802Z,19.90
2023-03-11T20:26:42.358Z,20.00
2023-03-11T20:29:19.516Z,20.00
2023-03-11T20:31:52.692Z,20.00
2023-03-11T20:34:25.801Z,20.10
2023-03-11T20:36:58.778Z,20.10
2023-03-11T20:39:31.724Z,20.20
2023-03-11T20:42:04.703Z,20.20
2023-03-11T20:44:37.954Z,20.30
2023-03-11T20:47:10.972Z,20.30
2023-03-11T20:49:43.938Z,20.40
2023-03-11T20:52:16.874Z,20.40
2023-03-11T20:54:49.730Z,20.40
2023-03-11T20:57:22.629Z,20.50
2023-03-11T20:59:56.029Z,20.50
2023-03-11T21:02:29.072Z,20.50
2023-03-11T21:05:02.503Z,20.50
2023-03-11T21:07:35.876Z,20.60
2023-03-11T21:10:10.897Z,20.70
2023-03-11T21:12:43.901Z,20.80
2023-03-11T21:15:17.272Z,20.80
2023-03-11T21:17:50.438Z,20.90
2023-03-11T21:20:23.390Z,21.00
2023-03-11T21:22:56.329Z,21.10
2023-03-11T21:25:30.463Z,21.10
2023-03-11T21:28:07.843Z,21.10
2023-03-11T21:30:44.755Z,21.10
2023-03-11T21:33:17.670Z,21.10
2023-03-11T21:35:52.762Z,21.10
2023-03-11T21:38:26.294Z,21.10
2023-03-11T21:41:00.295Z,21.10
2023-03-11T21:43:37.586Z,21.20
2023-03-11T21:46:11.800Z,21.20
2023-03-11T21:48:44.937Z,21.30
2023-03-11T21:51:18.391Z,21.40
2023-03-11T21:53:52.303Z,21.40
2023-03-11T21:56:25.479Z,21.40
2023-03-11T21:58:58.595Z,21.50
2023-03-11T22:01:31.559Z,21.50
2023-03-11T22:04:05.251Z,21.60
2023-03-11T22:06:39.549Z,21.70
2023-03-11T22:09:13.278Z,21.70
2023-03-11T22:11:46.484Z,21.70
2023-03-11T22:14:19.531Z,21.80
2023-03-11T22:16:52.781Z,21.80
2023-03-11T22:19:25.884Z,21.80
2023-03-11T22:22:03.667Z,21.80
2023-03-11T22:24:36.557Z,21.80
2023-03-11T22:27:14.119Z,21.90
2023-03-11T22:29:47.231Z,21.80
2023-03-11T22:32:20.285Z,21.90
2023-03-11T22:34:53.404Z,21.90
2023-03-11T22:37:26.326Z,22.00
2023-03-11T22:39:59.304Z,22.10
2023-03-11T22:42:32.311Z,22.20
2023-03-11T22:45:05.666Z,22.30
2023-03-11T22:47:39.146Z,22.50
2023-03-11T22:50:12.540Z,22.60
2023-03-11T22:52:49.929Z,22.70
2023-03-11T22:55:23.291Z,22.80
2023-03-11T22:57:56.057Z,22.80
2023-03-11T23:00:29.191Z,22.90
2023-03-11T23:03:02.300Z,23.00
2023-03-11T23:05:37.577Z,23.10
2023-03-11T23:08:12.695Z,23.10
2023-03-11T23:10:50.374Z,23.10
2023-03-11T23:13:23.302Z,23.20
2023-03-11T23:15:56.276Z,23.30
2023-03-11T23:18:29.353Z,23.30
2023-03-11T23:21:02.641Z,23.40
2023-03-11T23:23:37.983Z,23.40
2023-03-11T23:26:12.471Z,23.40
2023-03-11T23:28:46.431Z,23.40
2023-03-11T23:31:21.174Z,23.50
2023-03-11T23:33:54.921Z,23.50
2023-03-11T23:36:33.288Z,23.50
2023-03-11T23:39:06.624Z,23.50
2023-03-11T23:41:40.273Z,23.50
2023-03-11T23:44:13.263Z,23.60
2023-03-11T23:46:46.217Z,23.60
2023-03-11T23:49:19.247Z,23.60
2023-03-11T23:51:52.157Z,23.60
2023-03-11T23:54:25.070Z,23.60
2023-03-11T23:57:02.258Z,23.60
2023-03-11T23:59:35.249Z,23.60
